Home > Products > Valid Products > MTR

000
SAUS45 KREV 170354
MTRDRA
METAR KDRA 170352Z AUTO 00000KT 10SM CLR 21/M08 A2981 RMK AO2 SLP055
T02061083





000
SAUS45 KREV 170254
MTRDRA
METAR KDRA 170252Z AUTO 01005KT 10SM CLR 23/M08 A2978 RMK AO2 SLP046
T02281083 53008





000
SAUS45 KREV 170154
MTRDRA
METAR KDRA 170152Z AUTO 31004KT 10SM CLR 27/M08 A2976 RMK AO2 SLP039
T02721083





000
SAUS45 KREV 170054
MTRDRA
METAR KDRA 170052Z AUTO 28008KT 10SM CLR 27/M09 A2976 RMK AO2 SLP041
T02721089





000
SAUS45 KREV 162354
MTRDRA
METAR KDRA 162352Z AUTO 30011G19KT 10SM CLR 29/M09 A2976 RMK AO2
WSHFT 2257 SLP039 T02941089 10294 20250 56015





000
SAUS45 KREV 162316
MTRDRA
SPECI KDRA 162314Z AUTO 29008G19KT 260V330 10SM CLR 29/M08 A2976 RMK
AO2 WSHFT 2257 T02891078





000
SAUS45 KREV 162254
MTRDRA
METAR KDRA 162252Z AUTO 24011G18KT 10SM CLR 29/M08 A2977 RMK AO2
SLP042 T02941078





000
SAUS45 KREV 162154
MTRDRA
METAR KDRA 162152Z AUTO VRB06G16KT 10SM CLR 28/M08 A2979 RMK AO2
SLP049 T02831078





000
SAUS45 KREV 162054
MTRDRA
METAR KDRA 162052Z AUTO 10SM CLR 27/M08 A2981 RMK AO2 SLP057
T02721078 58019





000
SAUS45 KREV 161954
MTRDRA
METAR KDRA 161952Z AUTO 10SM CLR 27/M07 A2983 RMK AO2 SLP066
T02671072





000
SAUS45 KREV 161854
MTRDRA
METAR KDRA 161852Z AUTO VRB04KT 10SM CLR 25/M07 A2985 RMK AO2 SLP071
T02501072





000
SAUS45 KREV 161754
MTRDRA
METAR KDRA 161752Z AUTO 02007KT 10SM CLR 26/M08 A2987 RMK AO2 SLP075
T02561078 10256 20094 55001





000
SAUS45 KREV 161654
MTRDRA
METAR KDRA 161652Z AUTO 03012KT 10SM CLR 23/M08 A2986 RMK AO2 SLP076
T02281078





000
SAUS45 KREV 161554
MTRDRA
METAR KDRA 161552Z AUTO 03013KT 10SM CLR 21/M08 A2986 RMK AO2 SLP073
T02061083





000
SAUS45 KREV 161454
MTRDRA
METAR KDRA 161452Z AUTO 36008KT 10SM CLR 18/M09 A2987 RMK AO2 SLP079
T01781089 51016





000
SAUS45 KREV 161354
MTRDRA
METAR KDRA 161352Z AUTO 00000KT 10SM CLR 13/M09 A2986 RMK AO2 SLP078
T01281094 $





000
SAUS45 KREV 161254
MTRDRA
METAR KDRA 161252Z AUTO 00000KT 10SM CLR 09/M10 A2984 RMK AO2 SLP071
T00941100 $





000
SAUS45 KREV 161154
MTRDRA
METAR KDRA 161152Z AUTO 09005KT 10SM CLR 09/M09 A2982 RMK AO2 SLP065
T00941094 10156 20094 55001 $





000
SAUS45 KREV 161054
MTRDRA
METAR KDRA 161052Z AUTO 00000KT 10SM CLR 10/M10 A2981 RMK AO2 SLP062
T01001100 $





000
SAUS45 KREV 160953
MTRDRA
METAR KDRA 160952Z AUTO 00000KT 10SM CLR 11/M10 A2982 RMK AO2 SLP062
T01111100 $





000
SAUS45 KREV 160853
MTRDRA
METAR KDRA 160852Z AUTO 02005KT 10SM CLR 12/M10 A2982 RMK AO2 SLP065
T01171100 58002 $





000
SAUS45 KREV 160753
MTRDRA
METAR KDRA 160752Z AUTO 04004KT 10SM CLR 12/M10 A2984 RMK AO2 SLP072
T01221100 402610061 $





000
SAUS45 KREV 160653
MTRDRA
METAR KDRA 160652Z AUTO 09005KT 10SM CLR 14/M11 A2983 RMK AO2 SLP067
T01441111 $





000
SAUS45 KREV 160553
MTRDRA
METAR KDRA 160552Z AUTO 09007KT 10SM CLR 16/M11 A2983 RMK AO2 SLP068
T01561106 10256 20150 51007 $





000
SAUS45 KREV 160453
MTRDRA
METAR KDRA 160452Z AUTO 01009KT 10SM CLR 16/M11 A2982 RMK AO2 SLP067
T01611106





000
SAUS45 KREV 160353
MTRDRA
METAR KDRA 160352Z AUTO 03005KT 10SM CLR 19/M11 A2982 RMK AO2 SLP066
T01891106





000
SAUS45 KREV 160253
MTRDRA
METAR KDRA 160252Z AUTO 23006KT 10SM CLR 21/M11 A2981 RMK AO2 SLP064
T02111106 55012





000
SAUS45 KREV 160153
MTRDRA
METAR KDRA 160152Z AUTO 24009KT 10SM CLR 23/M11 A2981 RMK AO2 SLP064
T02331106





000
SAUS45 KREV 160053
MTRDRA
METAR KDRA 160052Z AUTO 25010G21KT 10SM CLR 25/M11 A2983 RMK AO2
SLP071 T02501111





000
SAUS45 KREV 152353
MTRDRA
METAR KDRA 152352Z AUTO 24007G17KT 10SM CLR 25/M10 A2985 RMK AO2
SLP076 T02501100 10261 20200 56027





000
SAUS45 KREV 152253
MTRDRA
METAR KDRA 152252Z AUTO 25013G17KT 10SM CLR 25/M11 A2986 RMK AO2
SLP080 T02501111





000
SAUS45 KREV 152156 COR
MTRDRA
METAR KDRA 152152Z 25011G18KT 10SM CLR 25/M11 A2989 RMK AO2 SLP089
T02501106





000
SAUS45 KREV 152155 COR
MTRDRA
METAR KDRA 152152Z 25011G18KT 10SM CLR 25/M11 A2989 RMK AO2 SLP089
T02501106





000
SAUS45 KREV 152154
MTRDRA
METAR KDRA 152152Z 25011G18KT 10SM CLR 25/M11 A2989 RMK AO2 SLP089
T02501106





000
SAUS45 KREV 152054
MTRDRA
METAR KDRA 152052Z 24011G17KT 10SM CLR 24/M13 A2994 RMK AO2 SLP105
T02391128 56023





000
SAUS45 KREV 151954
MTRDRA
METAR KDRA 151952Z 24007KT 10SM CLR 23/M15 A2995 RMK AO2 SLP113
T02331150





000
SAUS45 KREV 151854
MTRDRA
METAR KDRA 151852Z 24008KT 10SM CLR 23/M16 A2999 RMK AO2 SLP122
T02281156





000
SAUS45 KREV 151754
MTRDRA
METAR KDRA 151752Z 18004KT 10SM CLR 20/M14 A3001 RMK AO2 SLP132
T02001144 10211 20061 58008





000
SAUS45 KREV 151654
MTRDRA
METAR KDRA 151652Z 00000KT 10SM CLR 18/M14 A3002 RMK AO2 SLP137
T01781139





000
SAUS45 KREV 151554
MTRDRA
METAR KDRA 151552Z 00000KT 10SM BKN250 16/M13 A3003 RMK AO2 SLP142
T01561133





000
SAUS45 KREV 151453
MTRDRA
METAR KDRA 151452Z AUTO 00000KT 10SM CLR 11/M14 A3004 RMK AO2 SLP145
T01111139 56003





000
SAUS45 KREV 151353
MTRDRA
METAR KDRA 151352Z AUTO 31005KT 10SM CLR 08/M14 A3004 RMK AO2 SLP144
T00781139





000
SAUS45 KREV 151253
MTRDRA
METAR KDRA 151252Z AUTO 00000KT 10SM CLR 08/M13 A3003 RMK AO2 SLP143
T00781128





000
SAUS45 KREV 151153
MTRDRA
METAR KDRA 151152Z AUTO 00000KT 10SM CLR 08/M13 A3005 RMK AO2 SLP147
T00781133 10139 20067 56012





000
SAUS45 KREV 151053
MTRDRA
METAR KDRA 151052Z AUTO 36003KT 10SM CLR 09/M13 A3005 RMK AO2 SLP149
T00891133





000
SAUS45 KREV 150953
MTRDRA
METAR KDRA 150952Z AUTO 04005KT 10SM CLR 10/M13 A3006 RMK AO2 SLP152
T01001133





000
SAUS45 KREV 150853
MTRDRA
METAR KDRA 150852Z AUTO VRB04KT 10SM CLR 10/M13 A3008 RMK AO2 SLP160
T01001133 58007





000
SAUS45 KREV 150754
MTRDRA
METAR KDRA 150752Z AUTO 00000KT 10SM CLR 10/M14 A3010 RMK AO2 SLP167
T01001144 402330089





000
SAUS45 KREV 150654
MTRDRA
METAR KDRA 150652Z AUTO 02005KT 10SM CLR 12/M13 A3010 RMK AO2 SLP165
T01221133





000
SAUS45 KREV 150554
MTRDRA
METAR KDRA 150552Z AUTO 11005KT 10SM CLR 13/M13 A3011 RMK AO2 SLP168
T01331133 10228 20128 50004





000
SAUS45 KREV 150454
MTRDRA
METAR KDRA 150452Z AUTO 10007KT 10SM CLR 14/M13 A3011 RMK AO2 SLP169
T01391133





000
SAUS45 KREV 150354
MTRDRA
METAR KDRA 150352Z AUTO 11005KT 10SM CLR 16/M14 A3011 RMK AO2 SLP170
T01561139





000
SAUS45 KREV 150254
MTRDRA
METAR KDRA 150252Z AUTO 12007KT 10SM CLR 18/M14 A3009 RMK AO2 SLP164
T01781144 55004





000
SAUS45 KREV 150154
MTRDRA
METAR KDRA 150152Z AUTO 12008KT 10SM CLR 22/M16 A3008 RMK AO2 SLP160
T02171156





000
SAUS45 KREV 150054
MTRDRA
METAR KDRA 150052Z AUTO 00000KT 10SM CLR 23/M17 A3009 RMK AO2 SLP160
T02281172





000
SAUS45 KREV 142354
MTRDRA
METAR KDRA 142352Z AUTO VRB05KT 10SM CLR 23/M17 A3011 RMK AO2 SLP166
T02281167 10233 20172 56024





000
SAUS45 KREV 142254
MTRDRA
METAR KDRA 142252Z AUTO VRB05KT 10SM CLR 22/M17 A3013 RMK AO2 SLP173
T02221172





000
SAUS45 KREV 142154
MTRDRA
METAR KDRA 142152Z AUTO 09008KT 070V170 10SM CLR 22/M17 A3016 RMK
AO2 SLP183 T02171167





000
SAUS45 KREV 142054
MTRDRA
METAR KDRA 142052Z AUTO 10010KT 10SM CLR 21/M16 A3019 RMK AO2 SLP192
T02111156 56017





000
SAUS45 KREV 141954
MTRDRA
METAR KDRA 141952Z AUTO 15011KT 10SM CLR 20/M16 A3020 RMK AO2 SLP200
T02001156





000
SAUS45 KREV 141854
MTRDRA
METAR KDRA 141852Z AUTO 08011KT 10SM CLR 19/M17 A3022 RMK AO2 SLP207
T01891172





000
SAUS45 KREV 141754
MTRDRA
METAR KDRA 141752Z AUTO 13016G21KT 10SM CLR 18/M13 A3024 RMK AO2
SLP213 T01781133 10178 20089 50000





000
SAUS45 KREV 141654
MTRDRA
METAR KDRA 141652Z AUTO 10015KT 10SM CLR 17/M12 A3024 RMK AO2 WSHFT
1600 SLP213 T01671117





000
SAUS45 KREV 141618
MTRDRA
SPECI KDRA 141617Z AUTO 11014KT 10SM CLR 16/M10 A3024 RMK AO2 WSHFT
1600 T01561100





000
SAUS45 KREV 141554
MTRDRA
METAR KDRA 141552Z AUTO 03010KT 10SM CLR 14/M09 A3025 RMK AO2 SLP216
T01441094





000
SAUS45 KREV 141454
MTRDRA
METAR KDRA 141452Z AUTO 04007KT 10SM CLR 12/M10 A3024 RMK AO2 SLP214
T01221100 53021





000
SAUS45 KREV 141354
MTRDRA
METAR KDRA 141352Z AUTO 09005KT 10SM CLR 09/M11 A3022 RMK AO2 SLP205
T00941111





000
SAUS45 KREV 141254
MTRDRA
METAR KDRA 141252Z AUTO 09008KT 10SM CLR 10/M14 A3019 RMK AO2 SLP194
T01001139





000
SAUS45 KREV 141154
MTRDRA
METAR KDRA 141152Z AUTO 02012KT 10SM CLR 10/M16 A3017 RMK AO2 SLP186
T01001156 10150 20100 53010





000
SAUS45 KREV 141054
MTRDRA
METAR KDRA 141052Z AUTO 03013KT 10SM CLR 11/M17 A3016 RMK AO2 SLP181
T01111167





000
SAUS45 KREV 140953
MTRDRA
METAR KDRA 140952Z AUTO 03008KT 10SM CLR 12/M16 A3015 RMK AO2 SLP177
T01171161





000
SAUS45 KREV 140853
MTRDRA
METAR KDRA 140852Z AUTO 04011KT 10SM CLR 13/M16 A3014 RMK AO2 SLP173
T01281161 51013





000
SAUS45 KREV 140754
MTRDRA
METAR KDRA 140752Z AUTO 04015KT 10SM CLR 13/M16 A3013 RMK AO2 SLP171
T01281156 402560117





000
SAUS45 KREV 140654
MTRDRA
METAR KDRA 140652Z AUTO 03012KT 10SM CLR 13/M16 A3012 RMK AO2 SLP167
T01281161





000
SAUS45 KREV 140554
MTRDRA
METAR KDRA 140552Z AUTO 04009KT 10SM CLR 15/M16 A3010 RMK AO2 SLP159
T01501161 10250 20144 51037





000
SAUS45 KREV 140454
MTRDRA
METAR KDRA 140452Z AUTO 05012KT 10SM CLR 16/M17 A3007 RMK AO2 SLP148
T01611167





    US Dept of Commerce
    National Oceanic and Atmospheric Administration
    National Weather Service
    1325 East West Highway
    Silver Spring, MD 20910
    Page Author: NWS Internet Services Team
Disclaimer
Information Quality
Credits
Glossary
Privacy Policy
Freedom of Information Act (FOIA)
About Us
Career Opportunities